createdAt,value
2018-11-25T00:01:02.169Z,2.50
2018-11-25T00:03:30.239Z,2.40
2018-11-25T00:06:01.953Z,2.40
2018-11-25T00:08:30.218Z,2.40
2018-11-25T00:11:01.754Z,2.40
2018-11-25T00:13:29.756Z,2.40
2018-11-25T00:15:59.244Z,2.40
2018-11-25T00:18:27.230Z,2.40
2018-11-25T00:20:56.354Z,2.40
2018-11-25T00:23:24.378Z,2.40
2018-11-25T00:25:52.498Z,2.40
2018-11-25T00:28:20.535Z,2.40
2018-11-25T00:30:52.483Z,2.40
2018-11-25T00:33:20.465Z,2.40
2018-11-25T00:35:48.681Z,2.40
2018-11-25T00:38:16.677Z,2.40
2018-11-25T00:40:45.191Z,2.40
2018-11-25T00:43:13.163Z,2.40
2018-11-25T00:45:41.379Z,2.40
2018-11-25T00:48:09.325Z,2.40
2018-11-25T00:50:37.511Z,2.40
2018-11-25T00:53:05.970Z,2.40
2018-11-25T00:55:34.347Z,2.50
2018-11-25T00:58:02.366Z,2.50
2018-11-25T01:00:30.563Z,2.50
2018-11-25T01:02:59.044Z,2.50
2018-11-25T01:05:27.190Z,2.50
2018-11-25T01:07:55.208Z,2.40
2018-11-25T01:10:23.481Z,2.40
2018-11-25T01:12:51.503Z,2.40
2018-11-25T01:15:19.658Z,2.40
2018-11-25T01:17:47.742Z,2.40
2018-11-25T01:20:16.513Z,2.40
2018-11-25T01:22:44.538Z,2.40
2018-11-25T01:25:12.864Z,2.50
2018-11-25T01:27:40.902Z,2.50
2018-11-25T01:30:11.605Z,2.50
2018-11-25T01:32:39.624Z,2.50
2018-11-25T01:35:13.776Z,2.50
2018-11-25T01:37:42.179Z,2.40
2018-11-25T01:40:11.784Z,2.40
2018-11-25T01:42:39.823Z,2.40
2018-11-25T01:45:09.380Z,2.40
2018-11-25T01:47:37.458Z,2.40
2018-11-25T01:50:09.227Z,2.40
2018-11-25T01:52:37.475Z,2.40
2018-11-25T01:55:06.579Z,2.40
2018-11-25T01:57:34.543Z,2.40
2018-11-25T02:00:02.678Z,2.40
2018-11-25T02:02:30.638Z,2.40
2018-11-25T02:04:58.846Z,2.40
2018-11-25T02:07:26.801Z,2.40
2018-11-25T02:09:54.947Z,2.40
2018-11-25T02:12:23.287Z,2.40
2018-11-25T02:14:51.886Z,2.40
2018-11-25T02:17:20.575Z,2.40
2018-11-25T02:19:48.779Z,2.40
2018-11-25T02:22:16.778Z,2.40
2018-11-25T02:24:45.185Z,2.40
2018-11-25T02:27:13.255Z,3.30
2018-11-25T02:29:41.437Z,2.40
2018-11-25T02:32:09.475Z,2.40
2018-11-25T02:34:37.662Z,2.40
2018-11-25T02:37:05.823Z,2.40
2018-11-25T02:39:33.916Z,2.40
2018-11-25T02:42:01.955Z,2.40
2018-11-25T02:44:30.521Z,2.40
2018-11-25T02:46:58.532Z,2.40
2018-11-25T02:49:26.651Z,2.40
2018-11-25T02:51:54.660Z,2.40
2018-11-25T02:54:22.809Z,2.30
2018-11-25T02:56:50.803Z,2.40
2018-11-25T02:59:18.977Z,2.40
2018-11-25T03:01:47.009Z,2.40
2018-11-25T03:04:15.271Z,2.40
2018-11-25T03:06:43.289Z,2.40
2018-11-25T03:09:17.157Z,2.40
2018-11-25T03:11:45.163Z,2.40
2018-11-25T03:14:13.603Z,2.40
2018-11-25T03:16:41.963Z,2.30
2018-11-25T03:19:10.151Z,2.30
2018-11-25T03:21:38.512Z,2.30
2018-11-25T03:24:07.728Z,2.30
2018-11-25T03:26:35.774Z,2.30
2018-11-25T03:29:03.823Z,2.30
2018-11-25T03:31:31.872Z,2.30
2018-11-25T03:34:00.008Z,2.30
2018-11-25T03:36:28.105Z,2.30
2018-11-25T03:38:56.320Z,2.30
2018-11-25T03:41:24.415Z,2.30
2018-11-25T03:43:54.554Z,2.30
2018-11-25T03:46:22.887Z,2.30
2018-11-25T03:48:51.100Z,2.30
2018-11-25T03:51:19.134Z,2.20
2018-11-25T03:53:48.319Z,2.30
2018-11-25T03:56:16.610Z,2.20
2018-11-25T03:58:44.772Z,2.20
2018-11-25T04:01:12.795Z,2.30
2018-11-25T04:03:41.998Z,2.20
2018-11-25T04:06:09.968Z,2.30
2018-11-25T04:08:38.259Z,2.30
2018-11-25T04:11:06.445Z,2.30
2018-11-25T04:13:34.571Z,2.30
2018-11-25T04:16:02.661Z,3.10
2018-11-25T04:18:31.092Z,2.30
2018-11-25T04:20:59.253Z,2.30
2018-11-25T04:23:27.420Z,2.30
2018-11-25T04:25:55.679Z,2.30
2018-11-25T04:28:23.856Z,2.30
2018-11-25T04:30:51.868Z,2.30
2018-11-25T04:33:20.059Z,2.30
2018-11-25T04:35:48.120Z,2.40
2018-11-25T04:38:16.274Z,2.40
2018-11-25T04:40:44.303Z,2.40
2018-11-25T04:43:12.474Z,2.40
2018-11-25T04:45:40.831Z,2.40
2018-11-25T04:48:09.032Z,2.40
2018-11-25T04:50:37.030Z,2.40
2018-11-25T04:53:05.967Z,2.40
2018-11-25T04:55:33.952Z,2.40
2018-11-25T04:58:02.526Z,2.40
2018-11-25T05:00:30.565Z,2.40
2018-11-25T05:02:58.725Z,2.30
2018-11-25T05:05:27.103Z,2.40
2018-11-25T05:07:56.182Z,2.40
2018-11-25T05:10:24.229Z,2.40
2018-11-25T05:12:52.438Z,2.40
2018-11-25T05:15:21.022Z,2.40
2018-11-25T05:17:49.145Z,2.40
2018-11-25T05:20:17.500Z,2.40
2018-11-25T05:22:52.812Z,2.40
2018-11-25T05:25:20.936Z,2.40
2018-11-25T05:27:49.122Z,2.40
2018-11-25T05:30:18.658Z,2.30
2018-11-25T05:32:48.094Z,2.30
2018-11-25T05:35:16.569Z,2.30
2018-11-25T05:37:44.691Z,2.40
2018-11-25T05:40:13.131Z,2.40
2018-11-25T05:42:41.286Z,2.40
2018-11-25T05:45:10.589Z,2.40
2018-11-25T05:47:40.393Z,2.40
2018-11-25T05:50:09.366Z,2.40
2018-11-25T05:52:37.552Z,2.40
2018-11-25T05:55:06.718Z,2.40
2018-11-25T05:57:34.839Z,2.40
2018-11-25T06:00:03.033Z,2.40
2018-11-25T06:02:31.123Z,2.40
2018-11-25T06:04:59.469Z,2.40
2018-11-25T06:07:27.612Z,2.40
2018-11-25T06:09:55.767Z,2.40
2018-11-25T06:12:24.382Z,2.40
2018-11-25T06:14:52.875Z,2.50
2018-11-25T06:17:20.993Z,2.50
2018-11-25T06:19:49.483Z,2.50
2018-11-25T06:22:17.697Z,2.50
2018-11-25T06:24:45.775Z,2.50
2018-11-25T06:27:13.878Z,2.50
2018-11-25T06:29:42.317Z,2.50
2018-11-25T06:32:10.433Z,2.50
2018-11-25T06:34:38.443Z,2.50
2018-11-25T06:37:07.031Z,2.50
2018-11-25T06:39:35.101Z,2.50
2018-11-25T06:42:03.483Z,2.50
2018-11-25T06:44:31.545Z,2.40
2018-11-25T06:46:59.690Z,2.40
2018-11-25T06:49:27.988Z,2.50
2018-11-25T06:51:56.163Z,2.50
2018-11-25T06:54:24.222Z,2.50
2018-11-25T06:56:52.759Z,2.50
2018-11-25T06:59:20.927Z,2.50
2018-11-25T07:01:48.967Z,2.50
2018-11-25T07:04:17.004Z,2.50
2018-11-25T07:06:45.188Z,2.50
2018-11-25T07:09:13.185Z,2.50
2018-11-25T07:11:41.296Z,2.50
2018-11-25T07:14:09.275Z,2.50
2018-11-25T07:16:38.419Z,2.50
2018-11-25T07:19:06.586Z,2.50
2018-11-25T07:21:40.261Z,2.50
2018-11-25T07:26:54.257Z,2.50
2018-11-25T07:29:22.375Z,2.50
2018-11-25T07:31:50.930Z,2.50
2018-11-25T07:34:20.075Z,2.60
2018-11-25T07:36:48.303Z,2.60
2018-11-25T07:39:17.767Z,2.60
2018-11-25T07:41:45.919Z,2.60
2018-11-25T07:44:16.055Z,2.60
2018-11-25T07:46:44.214Z,2.60
2018-11-25T07:49:12.314Z,2.70
2018-11-25T07:51:40.313Z,2.60
2018-11-25T07:54:08.447Z,2.70
2018-11-25T07:56:36.595Z,2.70
2018-11-25T07:59:04.825Z,2.70
2018-11-25T08:01:32.861Z,2.70
2018-11-25T08:04:00.905Z,2.70
2018-11-25T08:06:28.938Z,2.70
2018-11-25T08:08:58.956Z,2.80
2018-11-25T08:11:26.965Z,2.80
2018-11-25T08:13:56.097Z,2.80
2018-11-25T08:16:24.124Z,2.80
2018-11-25T08:18:59.128Z,2.80
2018-11-25T08:21:27.172Z,2.80
2018-11-25T08:23:55.280Z,2.90
2018-11-25T08:26:23.303Z,2.80
2018-11-25T08:28:52.602Z,2.90
2018-11-25T08:31:21.149Z,2.90
2018-11-25T08:33:54.825Z,2.90
2018-11-25T08:36:22.893Z,3.00
2018-11-25T08:38:51.148Z,3.00
2018-11-25T08:41:19.276Z,3.00
2018-11-25T08:43:47.547Z,3.00
2018-11-25T08:46:15.577Z,3.00
2018-11-25T08:48:44.760Z,3.00
2018-11-25T08:51:27.104Z,3.00
2018-11-25T08:53:55.105Z,3.00
2018-11-25T08:56:23.251Z,3.10
2018-11-25T08:58:51.279Z,3.10
2018-11-25T09:01:19.509Z,3.10
2018-11-25T09:03:47.556Z,3.10
2018-11-25T09:06:16.675Z,3.10
2018-11-25T09:08:45.483Z,3.10
2018-11-25T09:11:13.734Z,3.20
2018-11-25T09:13:41.830Z,3.20
2018-11-25T09:32:48.683Z,3.20
2018-11-25T09:35:17.115Z,3.10
2018-11-25T09:37:45.104Z,3.10
2018-11-25T09:40:13.794Z,3.10
2018-11-25T09:42:41.838Z,3.10
2018-11-25T09:45:10.550Z,3.20
2018-11-25T09:47:38.518Z,3.20
2018-11-25T09:50:08.251Z,3.20
2018-11-25T09:52:36.348Z,3.20
2018-11-25T09:55:04.291Z,3.20
2018-11-25T09:57:32.204Z,3.20
2018-11-25T10:00:00.190Z,3.20
2018-11-25T10:02:28.194Z,3.30
2018-11-25T10:04:56.165Z,3.30
2018-11-25T10:07:24.164Z,3.30
2018-11-25T10:09:52.420Z,3.40
2018-11-25T10:12:20.365Z,3.40
2018-11-25T10:14:48.392Z,3.40
2018-11-25T10:17:16.360Z,3.40
2018-11-25T10:19:44.347Z,3.40
2018-11-25T10:22:12.344Z,3.40
2018-11-25T10:24:40.391Z,3.40
2018-11-25T10:27:08.499Z,3.40
2018-11-25T10:29:36.458Z,3.40
2018-11-25T10:32:04.431Z,3.40
2018-11-25T10:34:32.448Z,3.40
2018-11-25T10:37:00.396Z,3.50
2018-11-25T10:39:28.403Z,3.50
2018-11-25T10:41:56.343Z,3.50
2018-11-25T10:44:24.318Z,3.50
2018-11-25T10:46:52.342Z,3.50
2018-11-25T10:49:20.313Z,3.60
2018-11-25T10:51:48.330Z,3.70
2018-11-25T10:54:16.284Z,3.70
2018-11-25T10:56:44.231Z,3.70
2018-11-25T10:59:12.239Z,3.60
2018-11-25T11:01:51.620Z,3.70
2018-11-25T11:04:24.874Z,3.70
2018-11-25T11:06:58.242Z,3.70
2018-11-25T11:09:26.531Z,3.70
2018-11-25T11:11:54.498Z,3.80
2018-11-25T11:14:22.467Z,3.80
2018-11-25T11:16:54.028Z,3.80
2018-11-25T11:19:18.514Z,3.70
2018-11-25T11:21:46.471Z,3.70
2018-11-25T11:24:14.445Z,3.70
2018-11-25T11:26:42.392Z,3.80
2018-11-25T11:29:10.452Z,3.80
2018-11-25T11:31:38.382Z,3.80
2018-11-25T11:34:06.378Z,3.80
2018-11-25T11:36:34.951Z,3.80
2018-11-25T11:39:03.053Z,3.80
2018-11-25T11:41:31.046Z,3.80
2018-11-25T11:43:59.075Z,3.80
2018-11-25T11:46:27.037Z,3.80
2018-11-25T11:48:55.007Z,3.80
2018-11-25T11:51:25.820Z,3.80
2018-11-25T11:53:51.165Z,3.80
2018-11-25T11:56:19.140Z,3.70
2018-11-25T11:58:53.172Z,3.70
2018-11-25T12:01:21.161Z,3.70
2018-11-25T12:03:49.211Z,3.60
2018-11-25T12:06:17.207Z,3.60
2018-11-25T12:08:46.319Z,3.70
2018-11-25T12:11:14.321Z,3.70
2018-11-25T12:13:42.452Z,3.70
2018-11-25T12:16:10.618Z,3.60
2018-11-25T12:18:38.710Z,3.60
2018-11-25T12:21:06.771Z,3.60
2018-11-25T12:23:35.267Z,3.60
2018-11-25T12:26:05.435Z,3.60
2018-11-25T12:28:34.655Z,3.60
2018-11-25T12:31:03.091Z,3.60
2018-11-25T12:33:31.260Z,3.60
2018-11-25T12:35:59.894Z,3.60
2018-11-25T12:38:27.974Z,3.60
2018-11-25T12:40:56.373Z,3.60
2018-11-25T12:43:24.987Z,3.60
2018-11-25T12:45:53.638Z,3.60
2018-11-25T12:48:22.432Z,3.60
2018-11-25T12:50:51.217Z,3.60
2018-11-25T12:53:21.590Z,3.60
2018-11-25T12:55:50.037Z,3.70
2018-11-25T12:58:18.423Z,3.70
2018-11-25T13:00:47.484Z,3.70
2018-11-25T13:03:15.609Z,3.70
2018-11-25T13:05:46.379Z,3.70
2018-11-25T13:08:12.200Z,3.70
2018-11-25T13:10:40.250Z,3.70
2018-11-25T13:13:08.871Z,3.70
2018-11-25T13:15:36.938Z,3.70
2018-11-25T13:18:05.143Z,3.70
2018-11-25T13:20:33.201Z,3.70
2018-11-25T13:23:01.452Z,3.60
2018-11-25T13:25:30.022Z,3.70
2018-11-25T13:27:58.052Z,3.70
2018-11-25T13:30:28.192Z,3.70
2018-11-25T13:32:57.151Z,3.60
2018-11-25T13:35:25.921Z,3.60
2018-11-25T13:37:53.917Z,3.60
2018-11-25T13:40:22.309Z,3.70
2018-11-25T13:42:50.733Z,3.70
2018-11-25T13:45:18.684Z,3.70
2018-11-25T13:47:47.196Z,3.60
2018-11-25T13:50:18.701Z,3.60
2018-11-25T13:52:56.335Z,3.60
2018-11-25T13:55:26.457Z,3.60
2018-11-25T13:58:00.373Z,3.60
2018-11-25T14:00:48.335Z,3.60
2018-11-25T14:03:21.010Z,3.60
2018-11-25T14:05:53.302Z,3.60
2018-11-25T14:08:18.232Z,3.60
2018-11-25T14:10:48.354Z,3.60
2018-11-25T14:13:16.913Z,3.60
2018-11-25T14:15:51.514Z,3.60
2018-11-25T14:18:19.574Z,3.60
2018-11-25T14:20:54.306Z,3.60
2018-11-25T14:23:24.519Z,3.60
2018-11-25T14:25:53.466Z,3.70
2018-11-25T14:28:21.799Z,3.70
2018-11-25T14:30:51.132Z,3.70
2018-11-25T14:33:21.123Z,3.70
2018-11-25T14:35:49.356Z,3.70
2018-11-25T14:38:18.213Z,3.70
2018-11-25T14:40:49.461Z,3.70
2018-11-25T14:43:24.092Z,3.70
2018-11-25T14:45:55.612Z,3.70
2018-11-25T14:48:23.541Z,3.70
2018-11-25T14:50:51.522Z,3.70
2018-11-25T14:53:19.610Z,3.70
2018-11-25T14:55:47.676Z,3.80
2018-11-25T14:58:15.674Z,3.70
2018-11-25T15:00:43.775Z,3.70
2018-11-25T15:03:11.776Z,3.70
2018-11-25T15:05:41.462Z,3.70
2018-11-25T15:08:10.032Z,3.70
2018-11-25T15:10:37.994Z,3.70
2018-11-25T15:13:06.538Z,3.70
2018-11-25T15:15:34.497Z,3.70
2018-11-25T15:18:02.484Z,3.70
2018-11-25T15:20:30.407Z,3.70
2018-11-25T15:22:59.336Z,3.70
2018-11-25T15:25:29.065Z,3.70
2018-11-25T15:27:58.140Z,3.70
2018-11-25T15:30:25.096Z,3.70
2018-11-25T15:32:53.181Z,3.70
2018-11-25T15:35:22.457Z,3.70
2018-11-25T15:37:50.920Z,3.70
2018-11-25T15:40:24.804Z,3.70
2018-11-25T15:42:53.626Z,3.70
2018-11-25T15:45:22.582Z,3.70
2018-11-25T15:47:52.061Z,3.70
2018-11-25T15:50:23.369Z,3.70
2018-11-25T15:52:51.396Z,3.70
2018-11-25T15:55:19.638Z,3.70
2018-11-25T15:57:47.636Z,3.70
2018-11-25T16:00:16.394Z,3.70
2018-11-25T16:02:45.530Z,3.70
2018-11-25T16:05:14.395Z,3.70
2018-11-25T16:07:42.400Z,3.70
2018-11-25T16:10:11.042Z,3.70
2018-11-25T16:12:39.184Z,3.70
2018-11-25T16:15:09.054Z,3.70
2018-11-25T16:17:37.120Z,3.70
2018-11-25T16:20:06.782Z,3.70
2018-11-25T16:22:34.714Z,3.70
2018-11-25T16:25:02.809Z,3.70
2018-11-25T16:27:31.176Z,3.80
2018-11-25T16:29:59.148Z,3.80
2018-11-25T16:32:27.164Z,3.80
2018-11-25T16:34:55.135Z,3.80
2018-11-25T16:37:23.132Z,3.80
2018-11-25T16:39:51.104Z,3.80
2018-11-25T16:42:19.114Z,3.80
2018-11-25T16:44:47.086Z,3.80
2018-11-25T16:47:15.190Z,3.80
2018-11-25T16:49:43.188Z,3.80
2018-11-25T16:52:11.168Z,3.80
2018-11-25T16:54:39.163Z,3.80
2018-11-25T16:57:07.230Z,3.80
2018-11-25T16:59:35.209Z,3.80
2018-11-25T17:02:03.201Z,3.80
2018-11-25T17:04:31.424Z,3.80
2018-11-25T17:06:59.382Z,3.80
2018-11-25T17:09:27.322Z,3.80
2018-11-25T17:11:55.296Z,3.80
2018-11-25T17:14:23.446Z,3.80
2018-11-25T17:16:51.446Z,3.80
2018-11-25T17:19:19.442Z,3.80
2018-11-25T17:21:47.414Z,3.80
2018-11-25T17:24:15.416Z,3.80
2018-11-25T17:26:43.387Z,3.80
2018-11-25T17:29:11.445Z,3.80
2018-11-25T17:31:39.471Z,3.80
2018-11-25T17:34:07.477Z,3.80
2018-11-25T17:36:35.484Z,3.80
2018-11-25T17:39:03.653Z,3.80
2018-11-25T17:41:31.629Z,3.90
2018-11-25T17:43:59.652Z,3.90
2018-11-25T17:46:27.624Z,3.90
2018-11-25T17:48:55.616Z,3.90
2018-11-25T17:51:23.826Z,3.90
2018-11-25T17:53:51.933Z,3.90
2018-11-25T17:56:19.893Z,3.90
2018-11-25T17:58:47.851Z,3.90
2018-11-25T18:01:15.840Z,3.90
2018-11-25T18:03:43.851Z,3.90
2018-11-25T18:06:11.852Z,3.90
2018-11-25T18:08:39.993Z,3.90
2018-11-25T18:11:07.960Z,3.90
2018-11-25T18:13:37.472Z,3.90
2018-11-25T18:16:06.495Z,3.90
2018-11-25T18:18:36.353Z,3.90
2018-11-25T18:21:05.319Z,3.90
2018-11-25T18:23:33.305Z,4.00
2018-11-25T18:26:01.323Z,4.00
2018-11-25T18:28:29.281Z,4.00
2018-11-25T18:30:57.361Z,4.00
2018-11-25T18:33:25.560Z,4.00
2018-11-25T18:35:53.543Z,3.90
2018-11-25T18:38:21.595Z,4.00
2018-11-25T18:40:49.617Z,4.00
2018-11-25T18:43:17.589Z,4.00
2018-11-25T18:45:45.526Z,4.00
2018-11-25T18:48:14.172Z,4.00
2018-11-25T18:50:42.172Z,4.00
2018-11-25T18:53:10.679Z,4.00
2018-11-25T18:55:37.990Z,4.10
2018-11-25T18:58:06.178Z,4.00
2018-11-25T19:00:36.083Z,4.10
2018-11-25T19:03:04.118Z,4.00
2018-11-25T19:05:32.076Z,4.00
2018-11-25T19:08:00.050Z,4.10
2018-11-25T19:10:28.287Z,4.00
2018-11-25T19:12:56.279Z,4.10
2018-11-25T19:15:24.304Z,4.10
2018-11-25T19:17:52.282Z,4.10
2018-11-25T19:20:27.410Z,4.10
2018-11-25T19:22:55.824Z,4.10
2018-11-25T19:25:23.811Z,4.10
2018-11-25T19:27:51.928Z,4.10
2018-11-25T19:30:26.423Z,4.10
2018-11-25T19:32:48.746Z,4.10
2018-11-25T19:35:17.624Z,4.10
2018-11-25T19:37:46.105Z,4.10
2018-11-25T19:40:14.665Z,4.10
2018-11-25T19:42:42.938Z,4.10
2018-11-25T19:45:18.149Z,4.10
2018-11-25T19:47:46.146Z,4.10
2018-11-25T19:50:15.040Z,4.10
2018-11-25T19:52:43.122Z,4.10
2018-11-25T19:55:12.599Z,4.10
2018-11-25T19:57:40.667Z,4.10
2018-11-25T20:00:11.639Z,4.10
2018-11-25T20:02:39.685Z,4.10
2018-11-25T20:05:09.073Z,4.10
2018-11-25T20:07:37.059Z,4.10
2018-11-25T20:10:05.598Z,4.10
2018-11-25T20:12:40.055Z,4.10
2018-11-25T20:15:08.891Z,4.20
2018-11-25T20:17:37.064Z,4.20
2018-11-25T20:20:06.129Z,4.20
2018-11-25T20:22:34.172Z,4.20
2018-11-25T20:25:02.376Z,4.20
2018-11-25T20:27:37.369Z,4.20
2018-11-25T20:30:06.817Z,4.20
2018-11-25T20:32:40.161Z,4.20
2018-11-25T20:35:08.252Z,4.20
2018-11-25T20:37:40.618Z,4.20
2018-11-25T20:40:08.708Z,4.20
2018-11-25T20:42:36.769Z,4.20
2018-11-25T20:45:05.168Z,4.20
2018-11-25T20:47:33.269Z,4.20
2018-11-25T20:50:01.534Z,4.20
2018-11-25T20:52:34.784Z,4.20
2018-11-25T20:55:02.880Z,4.20
2018-11-25T20:57:30.944Z,4.20
2018-11-25T20:59:58.923Z,4.20
2018-11-25T21:02:29.392Z,4.20
2018-11-25T21:04:54.929Z,4.20
2018-11-25T21:07:22.956Z,4.20
2018-11-25T21:09:50.929Z,4.20
2018-11-25T21:12:18.943Z,4.20
2018-11-25T21:14:46.891Z,4.20
2018-11-25T21:17:14.890Z,4.20
2018-11-25T21:19:42.844Z,4.20
2018-11-25T21:22:10.804Z,4.30
2018-11-25T21:24:38.823Z,4.20
2018-11-25T21:27:06.796Z,4.20
2018-11-25T21:29:34.793Z,4.20
2018-11-25T21:32:02.833Z,4.20
2018-11-25T21:34:30.875Z,4.20
2018-11-25T21:36:58.831Z,4.30
2018-11-25T21:39:26.922Z,4.30
2018-11-25T21:41:54.869Z,4.30
2018-11-25T21:44:22.845Z,4.30
2018-11-25T21:46:50.806Z,4.30
2018-11-25T21:49:18.701Z,4.30
2018-11-25T21:51:46.708Z,4.30
2018-11-25T21:54:14.641Z,4.30
2018-11-25T21:56:42.611Z,4.30
2018-11-25T21:59:10.540Z,4.30
2018-11-25T22:01:38.511Z,4.30
2018-11-25T22:04:06.463Z,4.30
2018-11-25T22:06:34.466Z,4.40
2018-11-25T22:09:02.477Z,4.30
2018-11-25T22:11:30.488Z,4.30
2018-11-25T22:13:58.430Z,4.30
2018-11-25T22:16:26.398Z,4.30
2018-11-25T22:18:54.384Z,4.30
2018-11-25T22:21:22.317Z,4.30
2018-11-25T22:23:50.267Z,4.40
2018-11-25T22:26:18.229Z,4.40
2018-11-25T22:28:46.251Z,4.40
2018-11-25T22:34:00.223Z,4.30
2018-11-25T22:36:28.164Z,4.30
2018-11-25T22:38:56.175Z,4.40
2018-11-25T22:41:24.133Z,4.40
2018-11-25T22:43:52.111Z,4.40
2018-11-25T22:46:20.071Z,4.40
2018-11-25T22:48:48.028Z,4.40
2018-11-25T22:51:16.015Z,4.40
2018-11-25T22:53:44.019Z,4.30
2018-11-25T22:56:12.003Z,4.40
2018-11-25T22:58:39.960Z,4.40
2018-11-25T23:01:07.958Z,4.40
2018-11-25T23:03:35.935Z,4.40
2018-11-25T23:06:09.411Z,4.40
2018-11-25T23:08:37.412Z,4.40
2018-11-25T23:11:05.463Z,4.40
2018-11-25T23:13:33.466Z,4.50
2018-11-25T23:16:01.435Z,4.50
2018-11-25T23:18:29.415Z,4.50
2018-11-25T23:20:57.504Z,4.50
2018-11-25T23:23:25.427Z,4.40
2018-11-25T23:25:53.415Z,4.40
2018-11-25T23:28:21.362Z,4.50
2018-11-25T23:30:49.311Z,4.50
2018-11-25T23:33:17.308Z,4.50
2018-11-25T23:35:45.254Z,4.40
2018-11-25T23:38:13.245Z,4.40
2018-11-25T23:40:41.187Z,4.40
2018-11-25T23:43:09.179Z,4.40
2018-11-25T23:45:37.109Z,4.40
2018-11-25T23:48:05.220Z,4.40
2018-11-25T23:50:33.192Z,4.40
2018-11-25T23:53:01.258Z,4.40
2018-11-25T23:55:29.246Z,4.40
2018-11-25T23:57:57.189Z,4.50
